createdAt,value
2019-04-01T00:02:01.366Z,86.10
2019-04-01T00:04:31.973Z,86.40
2019-04-01T00:07:02.415Z,86.80
2019-04-01T00:09:32.833Z,87.10
2019-04-01T00:12:03.277Z,86.70
2019-04-01T00:14:33.711Z,87.00
2019-04-01T00:17:04.181Z,87.10
2019-04-01T00:19:34.662Z,86.60
2019-04-01T00:22:05.167Z,85.80
2019-04-01T00:24:35.881Z,86.50
2019-04-01T00:27:06.465Z,86.80
2019-04-01T00:29:36.880Z,86.20
2019-04-01T00:32:07.801Z,86.20
2019-04-01T00:34:38.680Z,86.40
2019-04-01T00:37:09.080Z,86.00
2019-04-01T00:39:39.563Z,84.40
2019-04-01T00:42:21.266Z,83.10
2019-04-01T00:44:51.770Z,83.40
2019-04-01T00:47:22.856Z,84.00
2019-04-01T00:49:53.296Z,83.80
2019-04-01T00:52:23.745Z,83.90
2019-04-01T00:54:54.269Z,83.70
2019-04-01T00:57:24.908Z,82.90
2019-04-01T00:59:55.338Z,81.80
2019-04-01T01:02:25.941Z,82.20
2019-04-01T01:04:56.778Z,81.70
2019-04-01T01:07:27.325Z,81.70
2019-04-01T01:09:57.750Z,81.80
2019-04-01T01:12:28.153Z,82.00
2019-04-01T01:14:58.823Z,81.90
2019-04-01T01:17:29.312Z,81.30
2019-04-01T01:19:59.937Z,80.80
2019-04-01T01:22:30.366Z,80.50
2019-04-01T01:25:00.882Z,80.50
2019-04-01T01:27:31.274Z,79.20
2019-04-01T01:30:01.630Z,78.50
2019-04-01T01:32:32.071Z,77.60
2019-04-01T01:35:02.815Z,77.30
2019-04-01T01:37:33.341Z,76.90
2019-04-01T01:40:03.893Z,75.50
2019-04-01T01:42:34.512Z,75.10
2019-04-01T01:45:05.464Z,75.00
2019-04-01T01:47:35.958Z,75.00
2019-04-01T01:50:06.920Z,75.20
2019-04-01T01:52:37.629Z,74.80
2019-04-01T01:55:08.325Z,75.80
2019-04-01T01:57:39.544Z,74.40
2019-04-01T02:00:10.770Z,73.30
2019-04-01T02:02:41.262Z,72.20
2019-04-01T02:05:11.615Z,72.60
2019-04-01T02:07:41.994Z,72.10
2019-04-01T02:10:12.621Z,72.70
2019-04-01T02:12:43.120Z,71.30
2019-04-01T02:15:13.862Z,71.50
2019-04-01T02:17:44.322Z,71.60
2019-04-01T02:20:14.746Z,72.00
2019-04-01T02:22:45.346Z,71.50
2019-04-01T02:25:15.891Z,71.60
2019-04-01T02:27:46.294Z,71.40
2019-04-01T02:30:17.018Z,72.00
2019-04-01T02:32:47.577Z,72.50
2019-04-01T02:35:18.019Z,73.10
2019-04-01T02:37:48.407Z,72.50
2019-04-01T02:40:21.996Z,71.70
2019-04-01T02:42:51.030Z,71.70
2019-04-01T02:45:23.820Z,71.30
2019-04-01T02:47:55.342Z,70.40
2019-04-01T02:50:25.803Z,70.00
2019-04-01T02:52:56.205Z,70.10
2019-04-01T02:55:26.736Z,69.10
2019-04-01T02:57:57.261Z,69.60
2019-04-01T03:00:27.740Z,69.50
2019-04-01T03:02:58.130Z,68.80
2019-04-01T03:05:28.663Z,69.00
2019-04-01T03:07:59.041Z,68.40
2019-04-01T03:10:29.688Z,68.00
2019-04-01T03:13:00.227Z,67.70
2019-04-01T03:15:30.682Z,67.20
2019-04-01T03:18:01.609Z,67.20
2019-04-01T03:20:32.114Z,67.20
2019-04-01T03:23:02.449Z,66.90
2019-04-01T03:25:32.849Z,66.20
2019-04-01T03:28:03.230Z,66.00
2019-04-01T03:30:33.974Z,65.00
2019-04-01T03:33:04.472Z,64.90
2019-04-01T03:35:34.999Z,65.30
2019-04-01T03:38:05.463Z,65.80
2019-04-01T03:40:36.160Z,66.30
2019-04-01T03:43:06.920Z,66.80
2019-04-01T03:45:37.357Z,66.00
2019-04-01T03:48:07.861Z,64.80
2019-04-01T03:50:38.386Z,65.00
2019-04-01T03:53:08.936Z,64.50
2019-04-01T03:55:39.341Z,63.60
2019-04-01T03:58:10.182Z,63.70
2019-04-01T04:00:43.273Z,64.60
2019-04-01T04:03:13.644Z,65.10
2019-04-01T04:05:44.672Z,65.70
2019-04-01T04:08:15.155Z,66.00
2019-04-01T04:10:45.957Z,67.10
2019-04-01T04:13:18.082Z,67.60
2019-04-01T04:15:48.557Z,68.30
2019-04-01T04:18:18.885Z,68.60
2019-04-01T04:20:49.290Z,68.80
2019-04-01T04:23:19.897Z,68.90
2019-04-01T04:25:51.269Z,69.60
2019-04-01T04:28:21.711Z,69.30
2019-04-01T04:30:52.369Z,69.70
2019-04-01T04:33:22.710Z,69.30
2019-04-01T04:35:53.108Z,69.20
2019-04-01T04:38:23.570Z,69.70
2019-04-01T04:40:54.035Z,69.50
2019-04-01T04:43:24.507Z,69.60
2019-04-01T04:45:55.060Z,68.50
2019-04-01T04:48:25.496Z,68.10
2019-04-01T04:50:55.996Z,67.60
2019-04-01T04:53:26.931Z,67.30
2019-04-01T04:55:57.386Z,67.40
2019-04-01T04:58:27.807Z,67.80
2019-04-01T05:00:58.318Z,67.80
2019-04-01T05:03:29.036Z,68.00
2019-04-01T05:05:59.468Z,68.30
2019-04-01T05:08:30.004Z,68.70
2019-04-01T05:11:00.750Z,69.10
2019-04-01T05:13:31.229Z,69.20
2019-04-01T05:16:02.076Z,69.10
2019-04-01T05:18:32.466Z,69.00
2019-04-01T05:21:03.573Z,69.40
2019-04-01T05:23:34.335Z,69.30
2019-04-01T05:26:04.928Z,70.10
2019-04-01T05:28:37.070Z,69.60
2019-04-01T05:31:09.522Z,69.40
2019-04-01T05:33:54.894Z,69.50
2019-04-01T05:36:15.912Z,69.40
2019-04-01T05:38:46.679Z,69.30
2019-04-01T05:41:18.050Z,68.70
2019-04-01T05:43:49.620Z,68.90
2019-04-01T05:46:20.165Z,68.80
2019-04-01T05:48:50.785Z,68.60
2019-04-01T05:51:21.206Z,68.30
2019-04-01T05:53:52.175Z,68.20
2019-04-01T05:56:23.485Z,68.30
2019-04-01T05:58:54.290Z,68.60
2019-04-01T06:01:35.760Z,68.60
2019-04-01T06:04:06.342Z,68.80
2019-04-01T06:06:36.959Z,68.90
2019-04-01T06:09:09.273Z,68.90
2019-04-01T06:11:41.528Z,68.80
2019-04-01T06:14:11.943Z,69.00
2019-04-01T06:16:42.887Z,68.70
2019-04-01T06:19:13.185Z,69.30
2019-04-01T06:21:43.627Z,69.40
2019-04-01T06:24:14.140Z,69.60
2019-04-01T06:26:44.584Z,69.90
2019-04-01T06:29:15.687Z,69.70
2019-04-01T06:31:46.078Z,69.30
2019-04-01T06:34:16.388Z,69.50
2019-04-01T06:36:46.911Z,69.30
2019-04-01T06:39:17.314Z,69.50
2019-04-01T06:41:47.948Z,69.70
2019-04-01T06:44:18.528Z,69.90
2019-04-01T06:46:49.039Z,70.20
2019-04-01T06:49:20.484Z,70.50
2019-04-01T06:51:50.995Z,70.60
2019-04-01T06:54:21.357Z,70.60
2019-04-01T06:56:51.946Z,70.50
2019-04-01T06:59:22.594Z,70.20
2019-04-01T07:01:53.155Z,69.60
2019-04-01T07:04:24.136Z,69.20
2019-04-01T07:06:54.874Z,70.20
2019-04-01T07:09:25.358Z,71.20
2019-04-01T07:11:56.016Z,72.30
2019-04-01T07:14:27.061Z,73.50
2019-04-01T07:16:57.730Z,74.00
2019-04-01T07:19:28.194Z,74.80
2019-04-01T07:21:58.785Z,74.10
2019-04-01T07:24:29.509Z,72.30
2019-04-01T07:27:00.087Z,71.50
2019-04-01T07:29:30.859Z,71.10
2019-04-01T07:32:01.835Z,71.80
2019-04-01T07:34:32.494Z,71.60
2019-04-01T07:37:02.892Z,71.60
2019-04-01T07:39:33.479Z,71.70
2019-04-01T07:42:04.533Z,71.00
2019-04-01T07:44:35.441Z,72.10
2019-04-01T07:47:05.863Z,73.10
2019-04-01T07:49:36.155Z,73.40
2019-04-01T07:52:06.691Z,74.00
2019-04-01T07:54:37.112Z,74.30
2019-04-01T07:57:07.880Z,73.10
2019-04-01T07:59:38.480Z,73.40
2019-04-01T08:02:08.907Z,74.30
2019-04-01T08:04:39.367Z,74.60
2019-04-01T08:07:13.107Z,73.80
2019-04-01T08:09:42.365Z,73.90
2019-04-01T08:12:12.862Z,74.00
2019-04-01T08:14:43.362Z,73.60
2019-04-01T08:17:13.782Z,73.30
2019-04-01T08:19:44.272Z,73.50
2019-04-01T08:22:15.194Z,72.50
2019-04-01T08:24:45.719Z,71.90
2019-04-01T08:27:16.150Z,71.20
2019-04-01T08:29:46.963Z,70.30
2019-04-01T08:32:17.285Z,68.90
2019-04-01T08:34:47.693Z,69.10
2019-04-01T08:37:18.109Z,67.10
2019-04-01T08:39:48.694Z,65.90
2019-04-01T08:42:19.544Z,63.80
2019-04-01T08:44:50.033Z,60.80
2019-04-01T08:47:20.410Z,59.50
2019-04-01T08:49:50.913Z,58.40
2019-04-01T08:52:22.023Z,57.60
2019-04-01T08:54:52.808Z,57.20
2019-04-01T08:57:23.213Z,57.80
2019-04-01T08:59:56.753Z,58.10
2019-04-01T09:02:27.256Z,58.60
2019-04-01T09:04:57.876Z,58.90
2019-04-01T09:07:28.311Z,57.80
2019-04-01T09:09:59.251Z,56.70
2019-04-01T09:12:29.789Z,57.00
2019-04-01T09:15:01.625Z,57.50
2019-04-01T09:17:32.163Z,57.50
2019-04-01T09:20:02.890Z,56.90
2019-04-01T09:22:33.315Z,57.10
2019-04-01T09:25:04.186Z,57.70
2019-04-01T09:27:34.612Z,57.70
2019-04-01T09:30:06.310Z,57.70
2019-04-01T09:32:36.710Z,57.10
2019-04-01T09:35:07.630Z,55.80
2019-04-01T09:37:38.300Z,56.60
2019-04-01T09:40:09.062Z,56.70
2019-04-01T09:42:39.735Z,57.60
2019-04-01T09:45:10.774Z,58.90
2019-04-01T09:47:41.282Z,63.40
2019-04-01T09:50:12.027Z,66.00
2019-04-01T09:52:42.640Z,66.40
2019-04-01T09:55:13.271Z,65.80
2019-04-01T09:57:43.847Z,65.80
2019-04-01T10:00:14.589Z,67.10
2019-04-01T10:02:45.222Z,67.60
2019-04-01T10:05:16.235Z,67.10
2019-04-01T10:07:46.839Z,67.90
2019-04-01T10:10:17.376Z,69.10
2019-04-01T10:12:49.767Z,69.70
2019-04-01T10:15:19.950Z,68.20
2019-04-01T10:17:50.309Z,68.30
2019-04-01T10:20:20.981Z,68.60
2019-04-01T10:22:51.612Z,70.20
2019-04-01T10:25:22.065Z,69.80
2019-04-01T10:27:52.668Z,70.40
2019-04-01T10:30:24.845Z,71.60
2019-04-01T10:32:55.462Z,73.20
2019-04-01T10:35:25.931Z,73.10
2019-04-01T10:37:56.422Z,73.60
2019-04-01T10:40:26.789Z,74.10
2019-04-01T10:42:57.308Z,75.00
2019-04-01T10:45:27.854Z,76.00
2019-04-01T10:47:58.470Z,76.50
2019-04-01T10:50:28.906Z,77.10
2019-04-01T10:52:59.744Z,78.60
2019-04-01T10:55:30.353Z,78.90
2019-04-01T10:58:01.062Z,78.50
2019-04-01T11:00:31.487Z,79.30
2019-04-01T11:03:04.291Z,80.20
2019-04-01T11:05:34.118Z,79.50
2019-04-01T11:08:04.776Z,79.20
2019-04-01T11:10:35.702Z,78.60
2019-04-01T11:13:06.441Z,77.30
2019-04-01T11:15:36.914Z,75.20
2019-04-01T11:18:08.282Z,76.00
2019-04-01T11:20:38.618Z,75.00
2019-04-01T11:23:09.176Z,75.20
2019-04-01T11:25:40.776Z,72.10
2019-04-01T11:28:11.209Z,70.50
2019-04-01T11:30:41.726Z,70.30
2019-04-01T11:33:12.568Z,68.20
2019-04-01T11:35:42.971Z,68.40
2019-04-01T11:38:13.396Z,69.30
2019-04-01T11:40:44.362Z,71.60
2019-04-01T11:43:15.004Z,72.70
2019-04-01T11:45:45.623Z,72.50
2019-04-01T11:48:16.204Z,71.40
2019-04-01T11:50:47.889Z,71.80
2019-04-01T11:53:18.591Z,72.90
2019-04-01T11:55:49.194Z,72.60
2019-04-01T11:58:19.700Z,72.90
2019-04-01T12:01:09.731Z,73.20
2019-04-01T12:03:39.994Z,71.20
2019-04-01T12:06:10.353Z,73.20
2019-04-01T12:08:40.839Z,74.80
2019-04-01T12:11:13.836Z,72.30
2019-04-01T12:13:44.270Z,74.20
2019-04-01T12:16:14.953Z,73.40
2019-04-01T12:18:45.409Z,75.60
2019-04-01T12:21:15.835Z,75.80
2019-04-01T12:23:46.339Z,75.90
2019-04-01T12:26:17.693Z,76.60
2019-04-01T12:28:48.514Z,75.00
2019-04-01T12:31:21.776Z,76.10
2019-04-01T12:33:52.406Z,74.20
2019-04-01T12:36:24.110Z,76.20
2019-04-01T12:38:54.675Z,74.80
2019-04-01T12:41:25.164Z,74.50
2019-04-01T12:43:55.520Z,76.10
2019-04-01T12:46:26.001Z,77.60
2019-04-01T12:48:56.343Z,77.80
2019-04-01T12:51:26.841Z,77.00
2019-04-01T12:53:57.280Z,78.60
2019-04-01T12:56:28.270Z,78.70
2019-04-01T12:58:59.826Z,77.90
2019-04-01T13:01:30.299Z,76.70
2019-04-01T13:04:04.002Z,74.60
2019-04-01T13:06:33.243Z,77.20
2019-04-01T13:09:03.930Z,78.20
2019-04-01T13:11:36.222Z,76.50
2019-04-01T13:14:06.984Z,75.90
2019-04-01T13:16:37.406Z,74.90
2019-04-01T13:19:07.759Z,74.10
2019-04-01T13:21:37.944Z,73.60
2019-04-01T13:24:08.391Z,71.30
2019-04-01T13:26:39.091Z,69.80
2019-04-01T13:29:09.547Z,69.90
2019-04-01T13:31:40.189Z,67.50
2019-04-01T13:34:10.610Z,70.90
2019-04-01T13:36:40.997Z,69.90
2019-04-01T13:39:11.553Z,71.30
2019-04-01T13:41:43.022Z,72.50
2019-04-01T13:44:15.403Z,72.00
2019-04-01T13:46:48.535Z,71.30
2019-04-01T13:49:18.398Z,71.40
2019-04-01T13:51:49.102Z,72.50
2019-04-01T13:54:19.667Z,71.70
2019-04-01T13:56:50.076Z,75.10
2019-04-01T13:59:20.510Z,75.40
2019-04-01T14:01:51.141Z,77.10
2019-04-01T14:04:21.868Z,77.30
2019-04-01T14:06:52.686Z,76.90
2019-04-01T14:09:23.018Z,76.00
2019-04-01T14:11:53.561Z,73.50
2019-04-01T14:14:24.328Z,75.40
2019-04-01T14:17:15.080Z,75.30
2019-04-01T14:19:45.867Z,70.90
2019-04-01T14:22:16.535Z,71.90
2019-04-01T14:24:46.958Z,72.30
2019-04-01T14:27:17.453Z,73.10
2019-04-01T14:29:47.749Z,73.90
2019-04-01T14:32:18.610Z,73.30
2019-04-01T14:34:50.476Z,70.40
2019-04-01T14:37:26.137Z,70.50
2019-04-01T14:39:53.331Z,71.30
2019-04-01T14:42:24.201Z,71.70
2019-04-01T14:45:01.562Z,73.20
2019-04-01T14:47:32.672Z,70.20
2019-04-01T14:50:07.373Z,69.10
2019-04-01T14:52:35.472Z,73.80
2019-04-01T14:55:06.663Z,73.90
2019-04-01T14:57:37.131Z,73.80
2019-04-01T15:00:09.487Z,74.60
2019-04-01T15:02:41.144Z,75.00
2019-04-01T15:05:12.027Z,74.70
2019-04-01T15:07:42.592Z,75.00
2019-04-01T15:10:14.322Z,75.40
2019-04-01T15:12:45.687Z,73.20
2019-04-01T15:15:16.222Z,72.40
2019-04-01T15:17:47.263Z,67.30
2019-04-01T15:20:18.320Z,67.80
2019-04-01T15:22:48.931Z,67.10
2019-04-01T15:25:19.472Z,68.30
2019-04-01T15:27:49.957Z,65.60
2019-04-01T15:30:20.534Z,67.90
2019-04-01T15:32:52.048Z,68.00
2019-04-01T15:35:22.690Z,67.00
2019-04-01T15:37:53.544Z,70.60
2019-04-01T15:40:23.849Z,68.90
2019-04-01T15:42:54.528Z,70.20
2019-04-01T15:45:25.128Z,68.50
2019-04-01T15:47:55.534Z,66.10
2019-04-01T15:50:28.759Z,68.10
2019-04-01T15:52:58.070Z,67.40
2019-04-01T15:55:28.425Z,67.30
2019-04-01T15:57:58.859Z,68.00
2019-04-01T16:00:29.339Z,67.80
2019-04-01T16:02:59.921Z,67.80
2019-04-01T16:05:30.647Z,68.10
2019-04-01T16:08:02.536Z,66.10
2019-04-01T16:10:33.285Z,70.20
2019-04-01T16:13:03.763Z,70.10
2019-04-01T16:15:34.255Z,71.40
2019-04-01T16:18:04.790Z,72.20
2019-04-01T16:20:35.200Z,72.50
2019-04-01T16:23:06.025Z,74.10
2019-04-01T16:25:37.730Z,75.00
2019-04-01T16:28:08.334Z,76.90
2019-04-01T16:30:39.256Z,76.80
2019-04-01T16:33:09.678Z,77.70
2019-04-01T16:35:40.085Z,78.40
2019-04-01T16:38:10.460Z,79.80
2019-04-01T16:40:40.925Z,81.10
2019-04-01T16:43:11.418Z,82.60
2019-04-01T16:45:42.928Z,85.10
2019-04-01T16:48:13.364Z,85.10
2019-04-01T16:50:44.263Z,86.20
2019-04-01T16:53:14.720Z,87.10
2019-04-01T16:55:45.191Z,87.60
2019-04-01T16:58:15.680Z,88.30
2019-04-01T17:00:46.777Z,89.40
2019-04-01T17:03:19.121Z,90.00
2019-04-01T17:05:49.511Z,90.40
2019-04-01T17:08:20.006Z,90.70
2019-04-01T17:10:50.414Z,91.30
2019-04-01T17:13:20.918Z,91.30
2019-04-01T17:15:51.327Z,91.80
2019-04-01T17:18:23.482Z,92.00
2019-04-01T17:20:53.907Z,91.20
2019-04-01T17:23:24.279Z,91.40
2019-04-01T17:25:55.116Z,92.00
2019-04-01T17:28:25.581Z,91.70
2019-04-01T17:30:55.966Z,91.50
2019-04-01T17:33:26.769Z,91.60
2019-04-01T17:35:57.241Z,91.60
2019-04-01T17:38:29.465Z,91.90
2019-04-01T17:40:59.916Z,91.80
2019-04-01T17:43:31.695Z,91.60
2019-04-01T17:46:02.704Z,91.80
2019-04-01T17:48:33.621Z,92.10
2019-04-01T17:51:04.123Z,92.10
2019-04-01T17:53:34.532Z,92.10
2019-04-01T17:56:07.268Z,92.10
2019-04-01T17:58:37.768Z,92.30
2019-04-01T18:01:09.427Z,92.20
2019-04-01T18:03:40.539Z,92.10
2019-04-01T18:06:10.966Z,92.00
2019-04-01T18:08:53.247Z,92.00
2019-04-01T18:11:23.859Z,92.20
2019-04-01T18:13:54.462Z,92.40
2019-04-01T18:16:25.087Z,92.40
2019-04-01T18:18:55.693Z,92.50
2019-04-01T18:21:27.268Z,92.50
2019-04-01T18:23:57.938Z,92.60
2019-04-01T18:26:28.376Z,92.50
2019-04-01T18:29:00.892Z,92.50
2019-04-01T18:31:33.443Z,92.70
2019-04-01T18:34:03.529Z,92.40
2019-04-01T18:36:34.946Z,92.60
2019-04-01T18:39:08.119Z,92.60
2019-04-01T18:41:39.002Z,92.70
2019-04-01T18:44:09.996Z,92.80
2019-04-01T18:46:40.634Z,92.60
2019-04-01T18:49:11.099Z,92.60
2019-04-01T18:51:41.589Z,92.60
2019-04-01T18:54:12.421Z,92.60
2019-04-01T18:56:42.873Z,92.60
2019-04-01T18:59:13.371Z,92.60
2019-04-01T19:01:44.194Z,92.70
2019-04-01T19:04:15.059Z,92.70
2019-04-01T19:06:45.574Z,92.90
2019-04-01T19:09:16.151Z,92.90
2019-04-01T19:11:47.696Z,93.00
2019-04-01T19:14:18.012Z,93.10
2019-04-01T19:16:49.397Z,93.20
2019-04-01T19:19:19.802Z,93.20
2019-04-01T19:21:51.269Z,93.50
2019-04-01T19:24:22.441Z,93.50
2019-04-01T19:26:53.428Z,93.60
2019-04-01T19:29:24.254Z,93.80
2019-04-01T19:31:54.852Z,93.80
2019-04-01T19:34:26.993Z,93.90
2019-04-01T19:36:59.323Z,94.00
2019-04-01T19:39:31.799Z,94.00
2019-04-01T19:42:02.653Z,93.80
2019-04-01T19:44:33.118Z,94.00
2019-04-01T19:47:03.927Z,94.00
2019-04-01T19:49:34.329Z,94.00
2019-04-01T19:52:05.766Z,93.70
2019-04-01T19:54:36.991Z,93.70
2019-04-01T19:57:08.338Z,93.60
2019-04-01T19:59:39.024Z,93.40
2019-04-01T20:02:10.185Z,92.90
2019-04-01T20:04:41.935Z,92.60
2019-04-01T20:07:12.962Z,92.40
2019-04-01T20:10:04.803Z,91.90
2019-04-01T20:12:35.640Z,91.60
2019-04-01T20:15:09.443Z,91.00
2019-04-01T20:17:59.279Z,90.60
2019-04-01T20:20:31.242Z,90.40
2019-04-01T20:23:02.258Z,90.00
2019-04-01T20:25:32.997Z,88.60
2019-04-01T20:28:04.258Z,88.30
2019-04-01T20:30:35.187Z,86.10
2019-04-01T20:33:16.882Z,84.30
2019-04-01T20:35:40.263Z,83.00
2019-04-01T20:38:10.807Z,82.70
2019-04-01T20:40:41.609Z,86.00
2019-04-01T20:43:13.162Z,86.00
2019-04-01T20:45:44.210Z,88.60
2019-04-01T20:48:14.866Z,90.20
2019-04-01T20:50:47.286Z,91.40
2019-04-01T20:53:19.168Z,91.90
2019-04-01T20:55:50.911Z,92.70
2019-04-01T20:58:23.391Z,93.30
2019-04-01T21:00:54.692Z,93.40
2019-04-01T21:03:25.632Z,93.20
2019-04-01T21:05:56.374Z,93.40
2019-04-01T21:08:27.350Z,93.30
2019-04-01T21:10:58.408Z,93.40
2019-04-01T21:16:20.988Z,93.60
2019-04-01T21:18:51.878Z,93.80
2019-04-01T21:21:22.530Z,93.90
2019-04-01T21:23:53.549Z,94.00
2019-04-01T21:26:24.401Z,94.20
2019-04-01T21:28:55.673Z,94.60
2019-04-01T21:31:26.822Z,94.50
2019-04-01T21:33:57.447Z,94.50
2019-04-01T21:36:27.935Z,94.70
2019-04-01T21:38:58.339Z,94.60
2019-04-01T21:41:29.039Z,94.80
2019-04-01T21:43:59.781Z,94.70
2019-04-01T21:46:30.301Z,95.20
2019-04-01T21:49:01.859Z,95.00
2019-04-01T21:51:33.013Z,95.10
2019-04-01T21:54:03.414Z,95.30
2019-04-01T21:56:33.825Z,95.30
2019-04-01T21:59:04.277Z,95.30
2019-04-01T22:01:35.009Z,95.40
2019-04-01T22:04:05.691Z,95.40
2019-04-01T22:06:36.364Z,95.30
2019-04-01T22:09:10.034Z,95.30
2019-04-01T22:11:41.348Z,95.50
2019-04-01T22:14:11.761Z,95.70
2019-04-01T22:16:42.217Z,95.70
2019-04-01T22:19:12.665Z,95.80
2019-04-01T22:21:43.043Z,95.80
2019-04-01T22:24:13.560Z,95.80
2019-04-01T22:26:44.001Z,95.90
2019-04-01T22:29:14.443Z,96.00
2019-04-01T22:31:45.356Z,96.20
2019-04-01T22:34:15.803Z,96.30
2019-04-01T22:36:46.914Z,96.20
2019-04-01T22:39:26.648Z,96.40
2019-04-01T22:41:49.613Z,96.60
2019-04-01T22:44:20.042Z,96.60
2019-04-01T22:46:50.683Z,96.50
2019-04-01T22:49:21.297Z,96.70
2019-04-01T22:51:51.673Z,96.90
2019-04-01T22:54:22.113Z,97.00
2019-04-01T22:56:52.786Z,97.10
2019-04-01T22:59:23.248Z,96.90
2019-04-01T23:01:53.720Z,97.30
2019-04-01T23:04:24.496Z,97.40
2019-04-01T23:06:55.124Z,97.40
2019-04-01T23:09:25.592Z,97.70
2019-04-01T23:11:56.479Z,97.90
2019-04-01T23:14:26.934Z,98.00
2019-04-01T23:16:57.375Z,98.10
2019-04-01T23:19:27.772Z,98.20
2019-04-01T23:21:58.111Z,98.30
2019-04-01T23:24:28.704Z,98.40
2019-04-01T23:26:59.246Z,98.50
2019-04-01T23:29:29.910Z,98.60
2019-04-01T23:32:00.409Z,98.70
2019-04-01T23:34:33.983Z,98.90
2019-04-01T23:37:04.429Z,99.10
2019-04-01T23:39:34.955Z,99.50
2019-04-01T23:42:05.583Z,99.60
2019-04-01T23:44:36.101Z,99.80
2019-04-01T23:47:06.641Z,99.90
2019-04-01T23:49:37.269Z,99.90
2019-04-01T23:52:07.787Z,99.90
2019-04-01T23:54:38.166Z,99.90
2019-04-01T23:57:08.691Z,99.90
2019-04-01T23:59:39.252Z,99.90
